sensor_id;sensor_type;location;lat;lon;timestamp;temperature;humidity
4828;DHT22;2428;48.732;9.148;2024-01-15T00:00:22;-1.60;99.90
4828;DHT22;2428;48.732;9.148;2024-01-15T00:02:47;-1.60;99.90
4828;DHT22;2428;48.732;9.148;2024-01-15T00:05:13;-1.60;99.90
4828;DHT22;2428;48.732;9.148;2024-01-15T00:07:38;-1.60;99.90
4828;DHT22;2428;48.732;9.148;2024-01-15T00:10:04;-1.50;99.90
4828;DHT22;2428;48.732;9.148;2024-01-15T00:12:31;-1.50;99.90
4828;DHT22;2428;48.732;9.148;2024-01-15T00:15:03;-1.50;99.90
4828;DHT22;2428;48.732;9.148;2024-01-15T00:17:28;-1.50;99.90
4828;DHT22;2428;48.732;9.148;2024-01-15T00:19:54;-1.50;99.90
4828;DHT22;2428;48.732;9.148;2024-01-15T00:22:19;-1.50;99.90
4828;DHT22;2428;48.732;9.148;2024-01-15T00:24:45;-1.40;99.90
4828;DHT22;2428;48.732;9.148;2024-01-15T00:27:11;-1.40;99.90
4828;DHT22;2428;48.732;9.148;2024-01-15T00:29:36;-1.50;99.90
4828;DHT22;2428;48.732;9.148;2024-01-15T00:32:02;-1.50;99.90
4828;DHT22;2428;48.732;9.148;2024-01-15T00:34:27;-1.50;99.90
4828;DHT22;2428;48.732;9.148;2024-01-15T00:36:53;-1.60;99.90
4828;DHT22;2428;48.732;9.148;2024-01-15T00:39:19;-1.60;99.90
4828;DHT22;2428;48.732;9.148;2024-01-15T00:41:44;-1.60;99.90
4828;DHT22;2428;48.732;9.148;2024-01-15T00:44:10;-1.60;99.90
4828;DHT22;2428;48.732;9.148;2024-01-15T00:46:45;-1.60;99.90
4828;DHT22;2428;48.732;9.148;2024-01-15T00:49:12;-1.60;99.90
4828;DHT22;2428;48.732;9.148;2024-01-15T00:51:38;-1.70;99.90
4828;DHT22;2428;48.732;9.148;2024-01-15T00:54:04;-1.70;99.90
4828;DHT22;2428;48.732;9.148;2024-01-15T00:56:30;-1.70;99.90
4828;DHT22;2428;48.732;9.148;2024-01-15T00:58:55;-1.70;99.90
4828;DHT22;2428;48.732;9.148;2024-01-15T01:01:21;-1.70;99.90
4828;DHT22;2428;48.732;9.148;2024-01-15T01:03:46;-1.70;99.90
4828;DHT22;2428;48.732;9.148;2024-01-15T01:06:12;-1.70;99.90
4828;DHT22;2428;48.732;9.148;2024-01-15T01:08:38;-1.70;99.90
4828;DHT22;2428;48.732;9.148;2024-01-15T01:11:07;-1.70;99.90
4828;DHT22;2428;48.732;9.148;2024-01-15T01:13:33;-1.70;99.90
4828;DHT22;2428;48.732;9.148;2024-01-15T01:15:58;-1.60;99.90
4828;DHT22;2428;48.732;9.148;2024-01-15T01:18:24;-1.60;99.90
4828;DHT22;2428;48.732;9.148;2024-01-15T01:20:50;-1.60;99.90
4828;DHT22;2428;48.732;9.148;2024-01-15T01:23:16;-1.60;99.90
4828;DHT22;2428;48.732;9.148;2024-01-15T01:25:41;-1.50;99.90
4828;DHT22;2428;48.732;9.148;2024-01-15T01:28:07;-1.50;99.90
4828;DHT22;2428;48.732;9.148;2024-01-15T01:30:33;-1.50;99.90
4828;DHT22;2428;48.732;9.148;2024-01-15T01:33:00;-1.50;99.90
4828;DHT22;2428;48.732;9.148;2024-01-15T01:35:26;-1.50;99.90
4828;DHT22;2428;48.732;9.148;2024-01-15T01:37:51;-1.40;99.90
4828;DHT22;2428;48.732;9.148;2024-01-15T01:40:17;-1.50;99.90
4828;DHT22;2428;48.732;9.148;2024-01-15T01:42:43;-1.40;99.90
4828;DHT22;2428;48.732;9.148;2024-01-15T01:45:09;-1.40;99.90
4828;DHT22;2428;48.732;9.148;2024-01-15T01:47:37;-1.40;99.90
4828;DHT22;2428;48.732;9.148;2024-01-15T01:50:04;-1.50;99.90
4828;DHT22;2428;48.732;9.148;2024-01-15T01:52:31;-1.40;99.90
4828;DHT22;2428;48.732;9.148;2024-01-15T01:54:57;-1.50;99.90
4828;DHT22;2428;48.732;9.148;2024-01-15T01:57:24;-1.40;99.90
4828;DHT22;2428;48.732;9.148;2024-01-15T01:59:50;-1.40;99.90
4828;DHT22;2428;48.732;9.148;2024-01-15T02:02:16;-1.30;99.90
4828;DHT22;2428;48.732;9.148;2024-01-15T02:04:42;-1.30;99.90
4828;DHT22;2428;48.732;9.148;2024-01-15T02:07:08;-1.30;99.90
4828;DHT22;2428;48.732;9.148;2024-01-15T02:09:41;-1.40;99.90
4828;DHT22;2428;48.732;9.148;2024-01-15T02:12:06;-1.40;99.90
4828;DHT22;2428;48.732;9.148;2024-01-15T02:14:32;-1.40;99.90
4828;DHT22;2428;48.732;9.148;2024-01-15T02:16:58;-1.40;99.90
4828;DHT22;2428;48.732;9.148;2024-01-15T02:19:24;-1.40;99.90
4828;DHT22;2428;48.732;9.148;2024-01-15T02:21:49;-1.40;99.90
4828;DHT22;2428;48.732;9.148;2024-01-15T02:24:15;-1.40;99.90
4828;DHT22;2428;48.732;9.148;2024-01-15T02:26:41;-1.40;99.90
4828;DHT22;2428;48.732;9.148;2024-01-15T02:29:10;-1.40;99.90
4828;DHT22;2428;48.732;9.148;2024-01-15T02:31:37;-1.40;99.90
4828;DHT22;2428;48.732;9.148;2024-01-15T02:34:02;-1.40;99.90
4828;DHT22;2428;48.732;9.148;2024-01-15T02:36:28;-1.40;99.90
4828;DHT22;2428;48.732;9.148;2024-01-15T02:38:53;-1.40;99.90
4828;DHT22;2428;48.732;9.148;2024-01-15T02:41:19;-1.40;99.90
4828;DHT22;2428;48.732;9.148;2024-01-15T02:43:44;-1.40;99.90
4828;DHT22;2428;48.732;9.148;2024-01-15T02:46:10;-1.40;99.90
4828;DHT22;2428;48.732;9.148;2024-01-15T02:48:36;-1.40;99.90
4828;DHT22;2428;48.732;9.148;2024-01-15T02:51:01;-1.30;99.90
4828;DHT22;2428;48.732;9.148;2024-01-15T02:53:30;-1.40;99.90
4828;DHT22;2428;48.732;9.148;2024-01-15T02:55:55;-1.40;99.90
4828;DHT22;2428;48.732;9.148;2024-01-15T02:58:21;-1.40;99.90
4828;DHT22;2428;48.732;9.148;2024-01-15T03:00:47;-1.40;99.90
4828;DHT22;2428;48.732;9.148;2024-01-15T03:03:12;-1.40;99.90
4828;DHT22;2428;48.732;9.148;2024-01-15T03:05:38;-1.40;99.90
4828;DHT22;2428;48.732;9.148;2024-01-15T03:08:04;-1.40;99.90
4828;DHT22;2428;48.732;9.148;2024-01-15T03:10:29;-1.40;99.90
4828;DHT22;2428;48.732;9.148;2024-01-15T03:12:55;-1.40;99.90
4828;DHT22;2428;48.732;9.148;2024-01-15T03:15:24;-1.40;99.90
4828;DHT22;2428;48.732;9.148;2024-01-15T03:17:52;-1.50;99.90
4828;DHT22;2428;48.732;9.148;2024-01-15T03:20:17;-1.50;99.90
4828;DHT22;2428;48.732;9.148;2024-01-15T03:22:43;-1.50;99.90
4828;DHT22;2428;48.732;9.148;2024-01-15T03:25:09;-1.50;99.90
4828;DHT22;2428;48.732;9.148;2024-01-15T03:27:34;-1.50;99.90
4828;DHT22;2428;48.732;9.148;2024-01-15T03:30:00;-1.50;99.90
4828;DHT22;2428;48.732;9.148;2024-01-15T03:32:26;-1.50;99.90
4828;DHT22;2428;48.732;9.148;2024-01-15T03:34:51;-1.50;99.90
4828;DHT22;2428;48.732;9.148;2024-01-15T03:37:17;-1.60;99.90
4828;DHT22;2428;48.732;9.148;2024-01-15T03:39:43;-1.60;99.90
4828;DHT22;2428;48.732;9.148;2024-01-15T03:42:12;-1.60;99.90
4828;DHT22;2428;48.732;9.148;2024-01-15T03:44:37;-1.60;99.90
4828;DHT22;2428;48.732;9.148;2024-01-15T03:47:03;-1.50;99.90
4828;DHT22;2428;48.732;9.148;2024-01-15T03:49:29;-1.50;99.90
4828;DHT22;2428;48.732;9.148;2024-01-15T03:51:55;-1.50;99.90
4828;DHT22;2428;48.732;9.148;2024-01-15T03:54:20;-1.50;99.90
4828;DHT22;2428;48.732;9.148;2024-01-15T03:56:46;-1.50;99.90
4828;DHT22;2428;48.732;9.148;2024-01-15T03:59:14;-1.50;99.90
4828;DHT22;2428;48.732;9.148;2024-01-15T04:01:40;-1.40;99.90
4828;DHT22;2428;48.732;9.148;2024-01-15T04:04:05;-1.40;99.90
4828;DHT22;2428;48.732;9.148;2024-01-15T04:06:31;-1.40;99.90
4828;DHT22;2428;48.732;9.148;2024-01-15T04:08:56;-1.30;99.90
4828;DHT22;2428;48.732;9.148;2024-01-15T04:11:22;-1.30;99.90
4828;DHT22;2428;48.732;9.148;2024-01-15T04:13:47;-1.30;99.90
4828;DHT22;2428;48.732;9.148;2024-01-15T04:16:13;-1.20;99.90
4828;DHT22;2428;48.732;9.148;2024-01-15T04:18:39;-1.20;99.90
4828;DHT22;2428;48.732;9.148;2024-01-15T04:21:05;-1.20;99.90
4828;DHT22;2428;48.732;9.148;2024-01-15T04:23:32;-1.10;99.90
4828;DHT22;2428;48.732;9.148;2024-01-15T04:25:58;-1.10;99.90
4828;DHT22;2428;48.732;9.148;2024-01-15T04:28:23;-1.00;99.90
4828;DHT22;2428;48.732;9.148;2024-01-15T04:30:49;-1.00;99.90
4828;DHT22;2428;48.732;9.148;2024-01-15T04:33:14;-1.00;99.90
4828;DHT22;2428;48.732;9.148;2024-01-15T04:35:40;-1.00;99.90
4828;DHT22;2428;48.732;9.148;2024-01-15T04:38:06;-1.00;99.90
4828;DHT22;2428;48.732;9.148;2024-01-15T04:40:31;-0.90;99.90
4828;DHT22;2428;48.732;9.148;2024-01-15T04:42:57;-0.90;99.90
4828;DHT22;2428;48.732;9.148;2024-01-15T04:45:23;-0.80;99.90
4828;DHT22;2428;48.732;9.148;2024-01-15T04:47:53;-0.80;99.90
4828;DHT22;2428;48.732;9.148;2024-01-15T04:50:19;-0.80;99.90
4828;DHT22;2428;48.732;9.148;2024-01-15T04:52:44;-0.80;99.90
4828;DHT22;2428;48.732;9.148;2024-01-15T04:55:10;-0.80;99.90
4828;DHT22;2428;48.732;9.148;2024-01-15T04:57:35;-0.70;99.90
4828;DHT22;2428;48.732;9.148;2024-01-15T05:00:01;-0.70;99.90
4828;DHT22;2428;48.732;9.148;2024-01-15T05:02:28;-0.70;99.90
4828;DHT22;2428;48.732;9.148;2024-01-15T05:04:53;-0.70;99.90
4828;DHT22;2428;48.732;9.148;2024-01-15T05:07:19;-0.70;99.90
4828;DHT22;2428;48.732;9.148;2024-01-15T05:09:44;-0.70;99.90
4828;DHT22;2428;48.732;9.148;2024-01-15T05:12:13;-0.70;99.90
4828;DHT22;2428;48.732;9.148;2024-01-15T05:14:39;-0.70;99.90
4828;DHT22;2428;48.732;9.148;2024-01-15T05:17:04;-0.70;99.90
4828;DHT22;2428;48.732;9.148;2024-01-15T05:19:30;-0.70;99.90
4828;DHT22;2428;48.732;9.148;2024-01-15T05:21:55;-0.70;99.90
4828;DHT22;2428;48.732;9.148;2024-01-15T05:24:21;-0.70;99.90
4828;DHT22;2428;48.732;9.148;2024-01-15T05:26:46;-0.70;99.90
4828;DHT22;2428;48.732;9.148;2024-01-15T05:29:20;-0.70;99.90
4828;DHT22;2428;48.732;9.148;2024-01-15T05:31:46;-0.70;99.90
4828;DHT22;2428;48.732;9.148;2024-01-15T05:34:11;-0.70;99.90
4828;DHT22;2428;48.732;9.148;2024-01-15T05:36:37;-0.70;99.90
4828;DHT22;2428;48.732;9.148;2024-01-15T05:39:02;-0.70;99.90
4828;DHT22;2428;48.732;9.148;2024-01-15T05:41:28;-0.70;99.90
4828;DHT22;2428;48.732;9.148;2024-01-15T05:43:54;-0.70;99.90
4828;DHT22;2428;48.732;9.148;2024-01-15T05:46:19;-0.70;99.90
4828;DHT22;2428;48.732;9.148;2024-01-15T05:48:45;-0.70;99.90
4828;DHT22;2428;48.732;9.148;2024-01-15T05:51:14;-0.70;99.90
4828;DHT22;2428;48.732;9.148;2024-01-15T05:53:39;-0.70;99.90
4828;DHT22;2428;48.732;9.148;2024-01-15T05:56:06;-0.70;99.90
4828;DHT22;2428;48.732;9.148;2024-01-15T05:58:32;-0.70;99.90
4828;DHT22;2428;48.732;9.148;2024-01-15T06:00:58;-0.70;99.90
4828;DHT22;2428;48.732;9.148;2024-01-15T06:03:23;-0.70;99.90
4828;DHT22;2428;48.732;9.148;2024-01-15T06:05:49;-0.70;99.90
4828;DHT22;2428;48.732;9.148;2024-01-15T06:08:17;-0.70;99.90
4828;DHT22;2428;48.732;9.148;2024-01-15T06:10:44;-0.70;99.90
4828;DHT22;2428;48.732;9.148;2024-01-15T06:13:09;-0.70;99.90
4828;DHT22;2428;48.732;9.148;2024-01-15T06:15:35;-0.70;99.90
4828;DHT22;2428;48.732;9.148;2024-01-15T06:18:00;-0.70;99.90
4828;DHT22;2428;48.732;9.148;2024-01-15T06:20:26;-0.70;99.90
4828;DHT22;2428;48.732;9.148;2024-01-15T06:22:52;-0.70;99.90
4828;DHT22;2428;48.732;9.148;2024-01-15T06:25:17;-0.70;99.90
4828;DHT22;2428;48.732;9.148;2024-01-15T06:27:43;-0.70;99.90
4828;DHT22;2428;48.732;9.148;2024-01-15T06:30:09;-0.70;99.90
4828;DHT22;2428;48.732;9.148;2024-01-15T06:32:34;-0.70;99.90
4828;DHT22;2428;48.732;9.148;2024-01-15T06:35:01;-0.70;99.90
4828;DHT22;2428;48.732;9.148;2024-01-15T06:37:27;-0.70;99.90
4828;DHT22;2428;48.732;9.148;2024-01-15T06:39:52;-0.70;99.90
4828;DHT22;2428;48.732;9.148;2024-01-15T06:42:18;-0.70;99.90
4828;DHT22;2428;48.732;9.148;2024-01-15T06:44:44;-0.70;99.90
4828;DHT22;2428;48.732;9.148;2024-01-15T06:47:12;-0.70;99.90
4828;DHT22;2428;48.732;9.148;2024-01-15T06:49:37;-0.70;99.90
4828;DHT22;2428;48.732;9.148;2024-01-15T06:52:03;-0.60;99.90
4828;DHT22;2428;48.732;9.148;2024-01-15T06:54:29;-0.70;99.90
4828;DHT22;2428;48.732;9.148;2024-01-15T06:56:54;-0.70;99.90
4828;DHT22;2428;48.732;9.148;2024-01-15T06:59:20;-0.70;99.90
4828;DHT22;2428;48.732;9.148;2024-01-15T07:01:46;-0.60;99.90
4828;DHT22;2428;48.732;9.148;2024-01-15T07:04:11;-0.60;99.90
4828;DHT22;2428;48.732;9.148;2024-01-15T07:06:37;-0.60;99.90
4828;DHT22;2428;48.732;9.148;2024-01-15T07:09:02;-0.60;99.90
4828;DHT22;2428;48.732;9.148;2024-01-15T07:11:28;-0.60;99.90
4828;DHT22;2428;48.732;9.148;2024-01-15T07:13:53;-0.60;99.90
4828;DHT22;2428;48.732;9.148;2024-01-15T07:16:24;-0.60;99.90
4828;DHT22;2428;48.732;9.148;2024-01-15T07:18:50;-0.60;99.90
4828;DHT22;2428;48.732;9.148;2024-01-15T07:21:15;-0.60;99.90
4828;DHT22;2428;48.732;9.148;2024-01-15T07:23:41;-0.60;99.90
4828;DHT22;2428;48.732;9.148;2024-01-15T07:26:07;-0.60;99.90
4828;DHT22;2428;48.732;9.148;2024-01-15T07:28:33;-0.60;99.90
4828;DHT22;2428;48.732;9.148;2024-01-15T07:30:59;-0.60;99.90
4828;DHT22;2428;48.732;9.148;2024-01-15T07:33:26;-0.60;99.90
4828;DHT22;2428;48.732;9.148;2024-01-15T07:35:52;-0.60;99.90
4828;DHT22;2428;48.732;9.148;2024-01-15T07:38:17;-0.60;99.90
4828;DHT22;2428;48.732;9.148;2024-01-15T07:40:43;-0.60;99.90
4828;DHT22;2428;48.732;9.148;2024-01-15T07:43:09;-0.50;99.90
4828;DHT22;2428;48.732;9.148;2024-01-15T07:45:34;-0.50;99.90
4828;DHT22;2428;48.732;9.148;2024-01-15T07:48:00;-0.50;99.90
4828;DHT22;2428;48.732;9.148;2024-01-15T07:50:34;-0.50;99.90
4828;DHT22;2428;48.732;9.148;2024-01-15T07:53:00;-0.50;99.90
4828;DHT22;2428;48.732;9.148;2024-01-15T07:55:25;-0.50;99.90
4828;DHT22;2428;48.732;9.148;2024-01-15T07:57:52;-0.50;99.90
4828;DHT22;2428;48.732;9.148;2024-01-15T08:00:19;-0.40;99.90
4828;DHT22;2428;48.732;9.148;2024-01-15T08:02:44;-0.40;99.90
4828;DHT22;2428;48.732;9.148;2024-01-15T08:05:10;-0.40;99.90
4828;DHT22;2428;48.732;9.148;2024-01-15T08:07:35;-0.40;99.90
4828;DHT22;2428;48.732;9.148;2024-01-15T08:10:01;-0.40;99.90
4828;DHT22;2428;48.732;9.148;2024-01-15T08:12:26;-0.40;99.90
4828;DHT22;2428;48.732;9.148;2024-01-15T08:14:52;-0.40;99.90
4828;DHT22;2428;48.732;9.148;2024-01-15T08:17:18;-0.30;99.90
4828;DHT22;2428;48.732;9.148;2024-01-15T08:19:43;-0.30;99.90
4828;DHT22;2428;48.732;9.148;2024-01-15T08:22:09;-0.30;99.90
4828;DHT22;2428;48.732;9.148;2024-01-15T08:24:35;-0.30;99.90
4828;DHT22;2428;48.732;9.148;2024-01-15T08:27:01;-0.30;99.90
4828;DHT22;2428;48.732;9.148;2024-01-15T08:29:26;-0.30;99.90
4828;DHT22;2428;48.732;9.148;2024-01-15T08:31:52;-0.30;99.90
4828;DHT22;2428;48.732;9.148;2024-01-15T08:34:17;-0.20;99.90
4828;DHT22;2428;48.732;9.148;2024-01-15T08:36:43;-0.20;99.90
4828;DHT22;2428;48.732;9.148;2024-01-15T08:39:08;-0.20;99.90
4828;DHT22;2428;48.732;9.148;2024-01-15T08:41:34;-0.20;99.90
4828;DHT22;2428;48.732;9.148;2024-01-15T08:44:00;-0.20;99.90
4828;DHT22;2428;48.732;9.148;2024-01-15T08:46:26;-0.10;99.90
4828;DHT22;2428;48.732;9.148;2024-01-15T08:49:12;-0.10;99.90
4828;DHT22;2428;48.732;9.148;2024-01-15T08:51:37;0.00;99.90
4828;DHT22;2428;48.732;9.148;2024-01-15T08:54:13;0.00;99.90
4828;DHT22;2428;48.732;9.148;2024-01-15T08:56:38;0.00;99.90
4828;DHT22;2428;48.732;9.148;2024-01-15T08:59:05;0.10;99.90
4828;DHT22;2428;48.732;9.148;2024-01-15T09:01:31;0.10;99.90
4828;DHT22;2428;48.732;9.148;2024-01-15T09:03:56;0.10;99.90
4828;DHT22;2428;48.732;9.148;2024-01-15T09:06:22;0.10;99.90
4828;DHT22;2428;48.732;9.148;2024-01-15T09:08:47;0.10;99.90
4828;DHT22;2428;48.732;9.148;2024-01-15T09:11:24;0.10;99.90
4828;DHT22;2428;48.732;9.148;2024-01-15T09:13:50;0.10;99.90
4828;DHT22;2428;48.732;9.148;2024-01-15T09:16:17;0.20;99.90
4828;DHT22;2428;48.732;9.148;2024-01-15T09:18:43;0.20;99.90
4828;DHT22;2428;48.732;9.148;2024-01-15T09:21:08;0.30;99.90
4828;DHT22;2428;48.732;9.148;2024-01-15T09:23:34;0.20;99.90
4828;DHT22;2428;48.732;9.148;2024-01-15T09:26:00;0.30;99.90
4828;DHT22;2428;48.732;9.148;2024-01-15T09:28:26;0.20;99.90
4828;DHT22;2428;48.732;9.148;2024-01-15T09:30:51;0.30;99.90
4828;DHT22;2428;48.732;9.148;2024-01-15T09:33:17;0.30;99.90
4828;DHT22;2428;48.732;9.148;2024-01-15T09:35:42;0.30;99.90
4828;DHT22;2428;48.732;9.148;2024-01-15T09:38:08;0.30;99.90
4828;DHT22;2428;48.732;9.148;2024-01-15T09:40:34;0.30;99.90
4828;DHT22;2428;48.732;9.148;2024-01-15T09:43:03;0.40;99.90
4828;DHT22;2428;48.732;9.148;2024-01-15T09:45:30;0.40;99.90
4828;DHT22;2428;48.732;9.148;2024-01-15T09:47:56;0.40;99.90
4828;DHT22;2428;48.732;9.148;2024-01-15T09:50:22;0.40;99.90
4828;DHT22;2428;48.732;9.148;2024-01-15T09:52:48;0.40;99.90
4828;DHT22;2428;48.732;9.148;2024-01-15T09:55:17;0.50;99.90
4828;DHT22;2428;48.732;9.148;2024-01-15T09:57:44;0.40;99.90
4828;DHT22;2428;48.732;9.148;2024-01-15T10:00:11;0.50;99.90
4828;DHT22;2428;48.732;9.148;2024-01-15T10:02:37;0.50;99.90
4828;DHT22;2428;48.732;9.148;2024-01-15T10:05:04;0.50;99.90
4828;DHT22;2428;48.732;9.148;2024-01-15T10:07:30;0.50;99.90
4828;DHT22;2428;48.732;9.148;2024-01-15T10:10:00;0.50;99.90
4828;DHT22;2428;48.732;9.148;2024-01-15T10:12:31;0.50;99.90
4828;DHT22;2428;48.732;9.148;2024-01-15T10:14:59;0.50;99.90
4828;DHT22;2428;48.732;9.148;2024-01-15T10:17:25;0.60;99.90
4828;DHT22;2428;48.732;9.148;2024-01-15T10:19:53;0.60;99.90
4828;DHT22;2428;48.732;9.148;2024-01-15T10:22:18;0.60;99.90
4828;DHT22;2428;48.732;9.148;2024-01-15T10:24:44;0.60;99.90
4828;DHT22;2428;48.732;9.148;2024-01-15T10:27:11;0.60;99.90
4828;DHT22;2428;48.732;9.148;2024-01-15T10:29:37;0.70;99.90
4828;DHT22;2428;48.732;9.148;2024-01-15T10:32:08;0.70;99.90
4828;DHT22;2428;48.732;9.148;2024-01-15T10:34:37;0.60;99.90
4828;DHT22;2428;48.732;9.148;2024-01-15T10:37:04;0.70;99.90
4828;DHT22;2428;48.732;9.148;2024-01-15T10:39:39;0.70;99.90
4828;DHT22;2428;48.732;9.148;2024-01-15T10:42:05;0.70;99.90
4828;DHT22;2428;48.732;9.148;2024-01-15T10:44:31;0.70;99.90
4828;DHT22;2428;48.732;9.148;2024-01-15T10:46:57;0.70;99.90
4828;DHT22;2428;48.732;9.148;2024-01-15T10:49:23;0.70;99.90
4828;DHT22;2428;48.732;9.148;2024-01-15T10:51:52;0.70;99.90
4828;DHT22;2428;48.732;9.148;2024-01-15T10:54:19;0.70;99.90
4828;DHT22;2428;48.732;9.148;2024-01-15T10:56:47;0.70;99.90
4828;DHT22;2428;48.732;9.148;2024-01-15T10:59:14;0.70;99.90
4828;DHT22;2428;48.732;9.148;2024-01-15T11:01:39;0.70;99.90
4828;DHT22;2428;48.732;9.148;2024-01-15T11:04:07;0.70;99.90
4828;DHT22;2428;48.732;9.148;2024-01-15T11:06:59;0.70;99.90
4828;DHT22;2428;48.732;9.148;2024-01-15T11:09:31;0.70;99.90
4828;DHT22;2428;48.732;9.148;2024-01-15T11:12:18;0.80;99.90
4828;DHT22;2428;48.732;9.148;2024-01-15T11:14:49;0.70;99.90
4828;DHT22;2428;48.732;9.148;2024-01-15T11:17:15;0.60;99.90
4828;DHT22;2428;48.732;9.148;2024-01-15T11:22:18;0.70;99.90
4828;DHT22;2428;48.732;9.148;2024-01-15T11:24:57;0.70;99.90
4828;DHT22;2428;48.732;9.148;2024-01-15T11:27:42;0.80;99.90
4828;DHT22;2428;48.732;9.148;2024-01-15T11:30:09;0.80;99.90
4828;DHT22;2428;48.732;9.148;2024-01-15T11:32:38;0.80;99.90
4828;DHT22;2428;48.732;9.148;2024-01-15T11:35:08;0.80;99.90
4828;DHT22;2428;48.732;9.148;2024-01-15T11:40:43;0.80;99.90
4828;DHT22;2428;48.732;9.148;2024-01-15T11:43:13;0.80;99.90
4828;DHT22;2428;48.732;9.148;2024-01-15T11:45:40;0.70;99.90
4828;DHT22;2428;48.732;9.148;2024-01-15T11:50:33;0.60;99.90
4828;DHT22;2428;48.732;9.148;2024-01-15T11:53:01;0.60;99.90
4828;DHT22;2428;48.732;9.148;2024-01-15T11:55:34;0.60;99.90
4828;DHT22;2428;48.732;9.148;2024-01-15T11:58:01;0.60;99.90
4828;DHT22;2428;48.732;9.148;2024-01-15T12:00:28;0.70;99.90
4828;DHT22;2428;48.732;9.148;2024-01-15T12:02:54;0.70;99.90
4828;DHT22;2428;48.732;9.148;2024-01-15T12:05:20;0.60;99.90
4828;DHT22;2428;48.732;9.148;2024-01-15T12:07:49;0.60;99.90
4828;DHT22;2428;48.732;9.148;2024-01-15T12:10:17;0.60;99.90
4828;DHT22;2428;48.732;9.148;2024-01-15T12:15:31;0.60;99.90
4828;DHT22;2428;48.732;9.148;2024-01-15T12:17:58;0.50;99.90
4828;DHT22;2428;48.732;9.148;2024-01-15T12:20:25;0.50;99.90
4828;DHT22;2428;48.732;9.148;2024-01-15T12:22:51;0.40;99.90
4828;DHT22;2428;48.732;9.148;2024-01-15T12:25:17;0.30;99.90
4828;DHT22;2428;48.732;9.148;2024-01-15T12:27:42;0.20;99.90
4828;DHT22;2428;48.732;9.148;2024-01-15T12:30:11;0.20;99.90
4828;DHT22;2428;48.732;9.148;2024-01-15T12:32:37;0.20;99.90
4828;DHT22;2428;48.732;9.148;2024-01-15T12:35:03;0.00;99.90
4828;DHT22;2428;48.732;9.148;2024-01-15T12:37:30;-0.10;99.90
4828;DHT22;2428;48.732;9.148;2024-01-15T12:39:55;-0.10;99.90
4828;DHT22;2428;48.732;9.148;2024-01-15T12:42:21;-0.10;99.90
4828;DHT22;2428;48.732;9.148;2024-01-15T12:44:47;-0.20;99.90
4828;DHT22;2428;48.732;9.148;2024-01-15T12:47:13;-0.20;99.90
4828;DHT22;2428;48.732;9.148;2024-01-15T12:49:39;-0.20;99.90
4828;DHT22;2428;48.732;9.148;2024-01-15T12:52:08;-0.10;99.90
4828;DHT22;2428;48.732;9.148;2024-01-15T12:54:34;-0.10;99.90
4828;DHT22;2428;48.732;9.148;2024-01-15T12:57:00;-0.10;99.90
4828;DHT22;2428;48.732;9.148;2024-01-15T12:59:25;-0.10;99.90
4828;DHT22;2428;48.732;9.148;2024-01-15T13:01:51;-0.10;99.90
4828;DHT22;2428;48.732;9.148;2024-01-15T13:04:23;-0.10;99.90
4828;DHT22;2428;48.732;9.148;2024-01-15T13:06:50;0.00;99.90
4828;DHT22;2428;48.732;9.148;2024-01-15T13:09:18;0.00;99.90
4828;DHT22;2428;48.732;9.148;2024-01-15T13:11:45;0.00;99.90
4828;DHT22;2428;48.732;9.148;2024-01-15T13:14:11;-0.10;99.90
4828;DHT22;2428;48.732;9.148;2024-01-15T13:16:36;-0.10;99.90
4828;DHT22;2428;48.732;9.148;2024-01-15T13:19:02;-0.10;99.90
4828;DHT22;2428;48.732;9.148;2024-01-15T13:21:29;-0.10;99.90
4828;DHT22;2428;48.732;9.148;2024-01-15T13:23:55;-0.10;99.90
4828;DHT22;2428;48.732;9.148;2024-01-15T13:26:21;-0.10;99.90
4828;DHT22;2428;48.732;9.148;2024-01-15T13:29:04;-0.10;99.90
4828;DHT22;2428;48.732;9.148;2024-01-15T13:31:31;0.00;99.90
4828;DHT22;2428;48.732;9.148;2024-01-15T13:34:02;0.00;99.90
4828;DHT22;2428;48.732;9.148;2024-01-15T13:36:28;0.00;99.90
4828;DHT22;2428;48.732;9.148;2024-01-15T13:38:54;0.00;99.90
4828;DHT22;2428;48.732;9.148;2024-01-15T13:41:20;0.00;99.90
4828;DHT22;2428;48.732;9.148;2024-01-15T13:43:55;0.00;99.90
4828;DHT22;2428;48.732;9.148;2024-01-15T13:46:24;0.00;99.90
4828;DHT22;2428;48.732;9.148;2024-01-15T13:48:52;0.00;99.90
4828;DHT22;2428;48.732;9.148;2024-01-15T13:51:17;0.00;99.90
4828;DHT22;2428;48.732;9.148;2024-01-15T13:53:43;0.10;99.90
4828;DHT22;2428;48.732;9.148;2024-01-15T13:56:16;0.10;99.90
4828;DHT22;2428;48.732;9.148;2024-01-15T13:58:42;0.10;99.90
4828;DHT22;2428;48.732;9.148;2024-01-15T14:01:08;0.20;99.90
4828;DHT22;2428;48.732;9.148;2024-01-15T14:03:34;0.10;99.90
4828;DHT22;2428;48.732;9.148;2024-01-15T14:06:00;0.10;99.90
4828;DHT22;2428;48.732;9.148;2024-01-15T14:08:28;0.20;99.90
4828;DHT22;2428;48.732;9.148;2024-01-15T14:10:53;0.20;99.90
4828;DHT22;2428;48.732;9.148;2024-01-15T14:13:21;0.20;99.90
4828;DHT22;2428;48.732;9.148;2024-01-15T14:15:47;0.20;99.90
4828;DHT22;2428;48.732;9.148;2024-01-15T14:18:14;0.10;99.90
4828;DHT22;2428;48.732;9.148;2024-01-15T14:20:39;0.10;99.90
4828;DHT22;2428;48.732;9.148;2024-01-15T14:23:05;0.20;99.90
4828;DHT22;2428;48.732;9.148;2024-01-15T14:25:30;0.20;99.90
4828;DHT22;2428;48.732;9.148;2024-01-15T14:27:56;0.20;99.90
4828;DHT22;2428;48.732;9.148;2024-01-15T14:30:22;0.20;99.90
4828;DHT22;2428;48.732;9.148;2024-01-15T14:32:47;0.20;99.90
4828;DHT22;2428;48.732;9.148;2024-01-15T14:35:13;0.20;99.90
4828;DHT22;2428;48.732;9.148;2024-01-15T14:37:39;0.20;99.90
4828;DHT22;2428;48.732;9.148;2024-01-15T14:40:06;0.20;99.90
4828;DHT22;2428;48.732;9.148;2024-01-15T14:42:33;0.20;99.90
4828;DHT22;2428;48.732;9.148;2024-01-15T14:45:08;0.10;99.90
4828;DHT22;2428;48.732;9.148;2024-01-15T14:47:41;0.10;99.90
4828;DHT22;2428;48.732;9.148;2024-01-15T14:50:08;0.00;99.90
4828;DHT22;2428;48.732;9.148;2024-01-15T14:52:38;0.00;99.90
4828;DHT22;2428;48.732;9.148;2024-01-15T14:55:06;0.00;99.90
4828;DHT22;2428;48.732;9.148;2024-01-15T14:57:31;0.00;99.90
4828;DHT22;2428;48.732;9.148;2024-01-15T14:59:57;-0.10;99.90
4828;DHT22;2428;48.732;9.148;2024-01-15T15:02:23;0.00;99.90
4828;DHT22;2428;48.732;9.148;2024-01-15T15:04:49;0.00;99.90
4828;DHT22;2428;48.732;9.148;2024-01-15T15:07:15;0.00;99.90
4828;DHT22;2428;48.732;9.148;2024-01-15T15:09:43;-0.10;99.90
4828;DHT22;2428;48.732;9.148;2024-01-15T15:12:08;-0.10;99.90
4828;DHT22;2428;48.732;9.148;2024-01-15T15:14:34;-0.10;99.90
4828;DHT22;2428;48.732;9.148;2024-01-15T15:17:06;-0.10;99.90
4828;DHT22;2428;48.732;9.148;2024-01-15T15:19:32;-0.10;99.90
4828;DHT22;2428;48.732;9.148;2024-01-15T15:21:59;-0.20;99.90
4828;DHT22;2428;48.732;9.148;2024-01-15T15:24:24;-0.20;99.90
4828;DHT22;2428;48.732;9.148;2024-01-15T15:26:50;-0.10;99.90
4828;DHT22;2428;48.732;9.148;2024-01-15T15:29:16;-0.20;99.90
4828;DHT22;2428;48.732;9.148;2024-01-15T15:31:42;-0.20;99.90
4828;DHT22;2428;48.732;9.148;2024-01-15T15:34:08;-0.20;99.90
4828;DHT22;2428;48.732;9.148;2024-01-15T15:36:35;-0.20;99.90
4828;DHT22;2428;48.732;9.148;2024-01-15T15:39:00;-0.20;99.90
4828;DHT22;2428;48.732;9.148;2024-01-15T15:41:26;-0.20;99.90
4828;DHT22;2428;48.732;9.148;2024-01-15T15:43:53;-0.20;99.90
4828;DHT22;2428;48.732;9.148;2024-01-15T15:46:19;-0.20;99.90
4828;DHT22;2428;48.732;9.148;2024-01-15T15:48:44;-0.20;99.90
4828;DHT22;2428;48.732;9.148;2024-01-15T15:51:10;-0.20;99.90
4828;DHT22;2428;48.732;9.148;2024-01-15T15:53:35;-0.20;99.90
4828;DHT22;2428;48.732;9.148;2024-01-15T15:56:01;-0.20;99.90
4828;DHT22;2428;48.732;9.148;2024-01-15T15:58:27;-0.20;99.90
4828;DHT22;2428;48.732;9.148;2024-01-15T16:00:52;-0.20;99.90
4828;DHT22;2428;48.732;9.148;2024-01-15T16:03:18;-0.30;99.90
4828;DHT22;2428;48.732;9.148;2024-01-15T16:05:44;-0.30;99.90
4828;DHT22;2428;48.732;9.148;2024-01-15T16:08:10;-0.30;99.90
4828;DHT22;2428;48.732;9.148;2024-01-15T16:10:36;-0.30;99.90
4828;DHT22;2428;48.732;9.148;2024-01-15T16:13:01;-0.40;99.90